sensor_id;sensor_type;location;lat;lon;timestamp;P1;durP1;ratioP1;P2;durP2;ratioP2
31966;SDS011;18496;52.042;6.812;2022-11-25T00:00:18;10.35;;;3.45;;
31966;SDS011;18496;52.042;6.812;2022-11-25T00:02:22;20.83;;;4.03;;
31966;SDS011;18496;52.042;6.812;2022-11-25T00:04:26;13.05;;;3.05;;
31966;SDS011;18496;52.042;6.812;2022-11-25T00:06:32;10.30;;;3.00;;
31966;SDS011;18496;52.042;6.812;2022-11-25T00:08:37;12.63;;;3.83;;
31966;SDS011;18496;52.042;6.812;2022-11-25T00:10:41;24.25;;;4.13;;
31966;SDS011;18496;52.042;6.812;2022-11-25T00:12:45;9.88;;;3.08;;
31966;SDS011;18496;52.042;6.812;2022-11-25T00:14:48;11.43;;;2.83;;
31966;SDS011;18496;52.042;6.812;2022-11-25T00:16:52;20.70;;;4.45;;
31966;SDS011;18496;52.042;6.812;2022-11-25T00:18:56;18.50;;;3.35;;
31966;SDS011;18496;52.042;6.812;2022-11-25T00:21:07;19.13;;;3.58;;
31966;SDS011;18496;52.042;6.812;2022-11-25T00:23:12;22.00;;;3.80;;
31966;SDS011;18496;52.042;6.812;2022-11-25T00:25:16;21.70;;;4.00;;
31966;SDS011;18496;52.042;6.812;2022-11-25T00:27:19;16.40;;;4.00;;
31966;SDS011;18496;52.042;6.812;2022-11-25T00:29:23;21.30;;;3.53;;
31966;SDS011;18496;52.042;6.812;2022-11-25T00:31:29;21.75;;;4.05;;
31966;SDS011;18496;52.042;6.812;2022-11-25T00:33:35;14.73;;;3.50;;
31966;SDS011;18496;52.042;6.812;2022-11-25T00:35:39;17.38;;;3.72;;
31966;SDS011;18496;52.042;6.812;2022-11-25T00:37:42;12.27;;;3.33;;
31966;SDS011;18496;52.042;6.812;2022-11-25T00:39:46;13.95;;;3.40;;
31966;SDS011;18496;52.042;6.812;2022-11-25T00:41:50;10.25;;;2.97;;
31966;SDS011;18496;52.042;6.812;2022-11-25T00:44:13;16.83;;;3.17;;
31966;SDS011;18496;52.042;6.812;2022-11-25T00:46:36;19.13;;;3.38;;
31966;SDS011;18496;52.042;6.812;2022-11-25T00:48:40;20.52;;;4.28;;
31966;SDS011;18496;52.042;6.812;2022-11-25T00:50:43;22.70;;;3.55;;
31966;SDS011;18496;52.042;6.812;2022-11-25T00:52:47;30.80;;;3.70;;
31966;SDS011;18496;52.042;6.812;2022-11-25T00:54:51;17.17;;;3.65;;
31966;SDS011;18496;52.042;6.812;2022-11-25T00:56:56;16.75;;;3.33;;
31966;SDS011;18496;52.042;6.812;2022-11-25T00:58:59;12.82;;;3.17;;
31966;SDS011;18496;52.042;6.812;2022-11-25T01:01:03;12.80;;;2.85;;
31966;SDS011;18496;52.042;6.812;2022-11-25T01:03:07;10.27;;;2.90;;
31966;SDS011;18496;52.042;6.812;2022-11-25T01:05:12;15.70;;;3.97;;
31966;SDS011;18496;52.042;6.812;2022-11-25T01:07:16;15.48;;;2.88;;
31966;SDS011;18496;52.042;6.812;2022-11-25T01:09:21;20.67;;;4.38;;
31966;SDS011;18496;52.042;6.812;2022-11-25T01:11:25;11.40;;;3.28;;
31966;SDS011;18496;52.042;6.812;2022-11-25T01:13:29;17.30;;;3.75;;
31966;SDS011;18496;52.042;6.812;2022-11-25T01:15:35;10.68;;;3.92;;
31966;SDS011;18496;52.042;6.812;2022-11-25T01:17:39;18.90;;;4.05;;
31966;SDS011;18496;52.042;6.812;2022-11-25T01:19:42;21.60;;;3.92;;
31966;SDS011;18496;52.042;6.812;2022-11-25T01:21:46;23.85;;;3.75;;
31966;SDS011;18496;52.042;6.812;2022-11-25T01:23:50;13.25;;;3.70;;
31966;SDS011;18496;52.042;6.812;2022-11-25T01:25:54;13.57;;;4.30;;
31966;SDS011;18496;52.042;6.812;2022-11-25T01:27:58;14.57;;;3.50;;
31966;SDS011;18496;52.042;6.812;2022-11-25T01:30:03;15.57;;;3.63;;
31966;SDS011;18496;52.042;6.812;2022-11-25T01:32:09;20.20;;;3.60;;
31966;SDS011;18496;52.042;6.812;2022-11-25T01:34:19;17.08;;;3.92;;
31966;SDS011;18496;52.042;6.812;2022-11-25T01:36:25;25.80;;;4.30;;
31966;SDS011;18496;52.042;6.812;2022-11-25T01:38:29;20.52;;;4.25;;
31966;SDS011;18496;52.042;6.812;2022-11-25T01:40:34;13.55;;;3.40;;
31966;SDS011;18496;52.042;6.812;2022-11-25T01:42:42;23.67;;;4.30;;
31966;SDS011;18496;52.042;6.812;2022-11-25T01:45:35;24.08;;;3.72;;
31966;SDS011;18496;52.042;6.812;2022-11-25T01:47:30;16.77;;;3.67;;
31966;SDS011;18496;52.042;6.812;2022-11-25T01:51:54;15.43;;;3.20;;
31966;SDS011;18496;52.042;6.812;2022-11-25T01:54:19;20.50;;;4.00;;
31966;SDS011;18496;52.042;6.812;2022-11-25T01:56:27;20.33;;;4.22;;
31966;SDS011;18496;52.042;6.812;2022-11-25T01:58:34;14.38;;;3.10;;
31966;SDS011;18496;52.042;6.812;2022-11-25T02:00:39;16.35;;;4.00;;
31966;SDS011;18496;52.042;6.812;2022-11-25T02:02:44;16.08;;;3.22;;
31966;SDS011;18496;52.042;6.812;2022-11-25T02:04:49;12.13;;;3.67;;
31966;SDS011;18496;52.042;6.812;2022-11-25T02:06:54;11.25;;;3.42;;
31966;SDS011;18496;52.042;6.812;2022-11-25T02:09:04;21.67;;;3.83;;
31966;SDS011;18496;52.042;6.812;2022-11-25T02:11:09;11.23;;;3.13;;
31966;SDS011;18496;52.042;6.812;2022-11-25T02:13:14;17.27;;;4.35;;
31966;SDS011;18496;52.042;6.812;2022-11-25T02:15:18;9.60;;;3.38;;
31966;SDS011;18496;52.042;6.812;2022-11-25T02:17:22;13.30;;;3.17;;
31966;SDS011;18496;52.042;6.812;2022-11-25T02:19:31;13.82;;;2.95;;
31966;SDS011;18496;52.042;6.812;2022-11-25T02:22:04;19.45;;;3.65;;
31966;SDS011;18496;52.042;6.812;2022-11-25T02:24:14;13.50;;;3.20;;
31966;SDS011;18496;52.042;6.812;2022-11-25T02:26:25;22.20;;;4.10;;
31966;SDS011;18496;52.042;6.812;2022-11-25T02:28:29;21.45;;;3.53;;
31966;SDS011;18496;52.042;6.812;2022-11-25T02:30:34;15.80;;;3.08;;
31966;SDS011;18496;52.042;6.812;2022-11-25T02:32:45;12.95;;;3.22;;
31966;SDS011;18496;52.042;6.812;2022-11-25T02:34:50;21.83;;;3.90;;
31966;SDS011;18496;52.042;6.812;2022-11-25T02:36:54;16.45;;;3.13;;
31966;SDS011;18496;52.042;6.812;2022-11-25T02:38:59;14.95;;;3.92;;
31966;SDS011;18496;52.042;6.812;2022-11-25T02:43:36;14.73;;;3.33;;
31966;SDS011;18496;52.042;6.812;2022-11-25T02:45:51;12.85;;;3.45;;
31966;SDS011;18496;52.042;6.812;2022-11-25T02:48:02;9.10;;;3.00;;
31966;SDS011;18496;52.042;6.812;2022-11-25T02:50:06;18.02;;;3.17;;
31966;SDS011;18496;52.042;6.812;2022-11-25T02:52:10;17.30;;;2.85;;
31966;SDS011;18496;52.042;6.812;2022-11-25T02:54:14;20.42;;;3.38;;
31966;SDS011;18496;52.042;6.812;2022-11-25T02:56:19;16.30;;;3.35;;
31966;SDS011;18496;52.042;6.812;2022-11-25T02:58:24;22.80;;;3.70;;
31966;SDS011;18496;52.042;6.812;2022-11-25T03:00:29;17.77;;;3.63;;
31966;SDS011;18496;52.042;6.812;2022-11-25T03:02:33;18.38;;;3.53;;
31966;SDS011;18496;52.042;6.812;2022-11-25T03:04:37;19.33;;;3.83;;
31966;SDS011;18496;52.042;6.812;2022-11-25T03:06:41;12.48;;;3.25;;
31966;SDS011;18496;52.042;6.812;2022-11-25T03:08:45;14.52;;;3.53;;
31966;SDS011;18496;52.042;6.812;2022-11-25T03:10:49;16.25;;;3.90;;
31966;SDS011;18496;52.042;6.812;2022-11-25T03:12:53;11.73;;;2.90;;
31966;SDS011;18496;52.042;6.812;2022-11-25T03:14:57;14.43;;;3.38;;
31966;SDS011;18496;52.042;6.812;2022-11-25T03:17:00;14.77;;;3.55;;
31966;SDS011;18496;52.042;6.812;2022-11-25T03:19:04;22.25;;;3.70;;
31966;SDS011;18496;52.042;6.812;2022-11-25T03:21:08;17.25;;;3.90;;
31966;SDS011;18496;52.042;6.812;2022-11-25T03:23:11;19.58;;;4.13;;
31966;SDS011;18496;52.042;6.812;2022-11-25T03:25:15;19.10;;;2.92;;
31966;SDS011;18496;52.042;6.812;2022-11-25T03:27:20;23.17;;;4.20;;
31966;SDS011;18496;52.042;6.812;2022-11-25T03:29:23;19.27;;;4.20;;
31966;SDS011;18496;52.042;6.812;2022-11-25T03:31:27;22.02;;;3.63;;
31966;SDS011;18496;52.042;6.812;2022-11-25T03:33:31;13.77;;;3.20;;
31966;SDS011;18496;52.042;6.812;2022-11-25T03:35:34;17.55;;;2.45;;
31966;SDS011;18496;52.042;6.812;2022-11-25T03:37:40;11.70;;;3.30;;
31966;SDS011;18496;52.042;6.812;2022-11-25T03:39:45;12.80;;;3.60;;
31966;SDS011;18496;52.042;6.812;2022-11-25T03:41:49;16.50;;;4.07;;
31966;SDS011;18496;52.042;6.812;2022-11-25T03:43:54;18.00;;;3.95;;
31966;SDS011;18496;52.042;6.812;2022-11-25T03:45:59;12.48;;;3.22;;
31966;SDS011;18496;52.042;6.812;2022-11-25T03:48:04;12.85;;;2.90;;
31966;SDS011;18496;52.042;6.812;2022-11-25T03:50:08;16.48;;;4.45;;
31966;SDS011;18496;52.042;6.812;2022-11-25T03:52:14;17.80;;;3.60;;
31966;SDS011;18496;52.042;6.812;2022-11-25T03:54:21;16.30;;;3.50;;
31966;SDS011;18496;52.042;6.812;2022-11-25T03:56:43;20.23;;;3.30;;
31966;SDS011;18496;52.042;6.812;2022-11-25T03:58:48;10.73;;;3.20;;
31966;SDS011;18496;52.042;6.812;2022-11-25T04:00:52;22.40;;;3.55;;
31966;SDS011;18496;52.042;6.812;2022-11-25T04:02:56;16.40;;;4.15;;
31966;SDS011;18496;52.042;6.812;2022-11-25T04:05:00;20.85;;;4.15;;
31966;SDS011;18496;52.042;6.812;2022-11-25T04:07:05;13.23;;;3.40;;
31966;SDS011;18496;52.042;6.812;2022-11-25T04:09:09;11.70;;;3.30;;
31966;SDS011;18496;52.042;6.812;2022-11-25T04:11:16;19.42;;;4.40;;
31966;SDS011;18496;52.042;6.812;2022-11-25T04:13:24;26.48;;;4.53;;
31966;SDS011;18496;52.042;6.812;2022-11-25T04:15:28;17.58;;;4.22;;
31966;SDS011;18496;52.042;6.812;2022-11-25T04:17:34;17.52;;;4.30;;
31966;SDS011;18496;52.042;6.812;2022-11-25T04:19:38;27.95;;;3.92;;
31966;SDS011;18496;52.042;6.812;2022-11-25T04:21:41;16.50;;;4.25;;
31966;SDS011;18496;52.042;6.812;2022-11-25T04:23:46;19.70;;;3.53;;
31966;SDS011;18496;52.042;6.812;2022-11-25T04:25:51;18.85;;;4.05;;
31966;SDS011;18496;52.042;6.812;2022-11-25T04:28:01;16.10;;;4.03;;
31966;SDS011;18496;52.042;6.812;2022-11-25T04:30:09;17.63;;;4.13;;
31966;SDS011;18496;52.042;6.812;2022-11-25T04:32:16;14.05;;;4.03;;
31966;SDS011;18496;52.042;6.812;2022-11-25T04:34:21;12.05;;;3.83;;
31966;SDS011;18496;52.042;6.812;2022-11-25T04:36:26;19.92;;;4.80;;
31966;SDS011;18496;52.042;6.812;2022-11-25T04:38:31;23.73;;;4.63;;
31966;SDS011;18496;52.042;6.812;2022-11-25T04:40:35;16.52;;;4.72;;
31966;SDS011;18496;52.042;6.812;2022-11-25T04:42:54;6.63;;;3.67;;
31966;SDS011;18496;52.042;6.812;2022-11-25T04:44:59;18.92;;;4.25;;
31966;SDS011;18496;52.042;6.812;2022-11-25T04:47:04;23.33;;;4.60;;
31966;SDS011;18496;52.042;6.812;2022-11-25T04:49:08;13.43;;;4.25;;
31966;SDS011;18496;52.042;6.812;2022-11-25T04:51:14;16.17;;;4.78;;
31966;SDS011;18496;52.042;6.812;2022-11-25T04:53:17;15.48;;;4.28;;
31966;SDS011;18496;52.042;6.812;2022-11-25T04:55:21;23.10;;;5.68;;
31966;SDS011;18496;52.042;6.812;2022-11-25T04:57:25;12.00;;;5.10;;
31966;SDS011;18496;52.042;6.812;2022-11-25T04:59:28;23.10;;;5.68;;
31966;SDS011;18496;52.042;6.812;2022-11-25T05:01:41;18.38;;;4.95;;
31966;SDS011;18496;52.042;6.812;2022-11-25T05:03:57;20.17;;;4.35;;
31966;SDS011;18496;52.042;6.812;2022-11-25T05:06:06;16.35;;;5.05;;
31966;SDS011;18496;52.042;6.812;2022-11-25T05:08:12;21.13;;;5.78;;
31966;SDS011;18496;52.042;6.812;2022-11-25T05:10:17;24.05;;;5.65;;
31966;SDS011;18496;52.042;6.812;2022-11-25T05:12:25;18.40;;;4.78;;
31966;SDS011;18496;52.042;6.812;2022-11-25T05:14:30;14.60;;;5.50;;
31966;SDS011;18496;52.042;6.812;2022-11-25T05:16:34;21.98;;;5.05;;
31966;SDS011;18496;52.042;6.812;2022-11-25T05:18:39;18.42;;;4.80;;
31966;SDS011;18496;52.042;6.812;2022-11-25T05:20:43;22.30;;;4.85;;
31966;SDS011;18496;52.042;6.812;2022-11-25T05:22:47;11.60;;;4.75;;
31966;SDS011;18496;52.042;6.812;2022-11-25T05:24:56;16.70;;;5.05;;
31966;SDS011;18496;52.042;6.812;2022-11-25T05:27:00;19.13;;;4.30;;
31966;SDS011;18496;52.042;6.812;2022-11-25T05:29:04;12.77;;;4.60;;
31966;SDS011;18496;52.042;6.812;2022-11-25T05:31:10;21.42;;;5.78;;
31966;SDS011;18496;52.042;6.812;2022-11-25T05:33:14;18.92;;;4.47;;
31966;SDS011;18496;52.042;6.812;2022-11-25T05:35:17;25.42;;;5.07;;
31966;SDS011;18496;52.042;6.812;2022-11-25T05:37:23;21.35;;;5.07;;
31966;SDS011;18496;52.042;6.812;2022-11-25T05:39:31;13.43;;;4.43;;
31966;SDS011;18496;52.042;6.812;2022-11-25T05:41:54;15.30;;;5.13;;
31966;SDS011;18496;52.042;6.812;2022-11-25T05:43:58;18.40;;;6.18;;
31966;SDS011;18496;52.042;6.812;2022-11-25T05:46:06;16.35;;;5.28;;
31966;SDS011;18496;52.042;6.812;2022-11-25T05:48:11;16.63;;;5.10;;
31966;SDS011;18496;52.042;6.812;2022-11-25T05:50:15;19.23;;;5.20;;
31966;SDS011;18496;52.042;6.812;2022-11-25T05:52:39;18.50;;;4.40;;
31966;SDS011;18496;52.042;6.812;2022-11-25T05:54:42;17.60;;;5.32;;
31966;SDS011;18496;52.042;6.812;2022-11-25T05:56:46;22.45;;;5.13;;
31966;SDS011;18496;52.042;6.812;2022-11-25T05:59:15;11.25;;;4.57;;
31966;SDS011;18496;52.042;6.812;2022-11-25T06:01:34;18.13;;;4.57;;
31966;SDS011;18496;52.042;6.812;2022-11-25T06:03:38;20.95;;;5.95;;
31966;SDS011;18496;52.042;6.812;2022-11-25T06:05:42;20.85;;;5.03;;
31966;SDS011;18496;52.042;6.812;2022-11-25T06:07:46;15.20;;;4.57;;
31966;SDS011;18496;52.042;6.812;2022-11-25T06:09:50;21.88;;;5.45;;
31966;SDS011;18496;52.042;6.812;2022-11-25T06:11:54;20.65;;;4.53;;
31966;SDS011;18496;52.042;6.812;2022-11-25T06:13:59;16.10;;;5.07;;
31966;SDS011;18496;52.042;6.812;2022-11-25T06:16:07;26.15;;;5.53;;
31966;SDS011;18496;52.042;6.812;2022-11-25T06:18:11;20.02;;;5.07;;
31966;SDS011;18496;52.042;6.812;2022-11-25T06:20:17;17.65;;;5.40;;
31966;SDS011;18496;52.042;6.812;2022-11-25T06:22:22;21.67;;;5.45;;
31966;SDS011;18496;52.042;6.812;2022-11-25T06:24:26;18.25;;;5.05;;
31966;SDS011;18496;52.042;6.812;2022-11-25T06:26:35;24.63;;;5.60;;
31966;SDS011;18496;52.042;6.812;2022-11-25T06:28:39;19.58;;;5.20;;
31966;SDS011;18496;52.042;6.812;2022-11-25T06:30:43;22.95;;;4.97;;
31966;SDS011;18496;52.042;6.812;2022-11-25T06:32:54;16.23;;;5.15;;
31966;SDS011;18496;52.042;6.812;2022-11-25T06:34:59;20.70;;;5.40;;
31966;SDS011;18496;52.042;6.812;2022-11-25T06:37:14;16.27;;;4.90;;
31966;SDS011;18496;52.042;6.812;2022-11-25T06:39:18;18.95;;;4.40;;
31966;SDS011;18496;52.042;6.812;2022-11-25T06:41:21;16.65;;;4.93;;
31966;SDS011;18496;52.042;6.812;2022-11-25T06:43:25;16.23;;;5.03;;
31966;SDS011;18496;52.042;6.812;2022-11-25T06:45:30;12.48;;;4.22;;
31966;SDS011;18496;52.042;6.812;2022-11-25T06:47:34;25.92;;;5.57;;
31966;SDS011;18496;52.042;6.812;2022-11-25T06:49:37;16.42;;;5.15;;
31966;SDS011;18496;52.042;6.812;2022-11-25T06:51:41;11.00;;;4.82;;
31966;SDS011;18496;52.042;6.812;2022-11-25T06:53:44;19.45;;;4.75;;
31966;SDS011;18496;52.042;6.812;2022-11-25T06:55:48;22.98;;;5.00;;
31966;SDS011;18496;52.042;6.812;2022-11-25T06:57:52;16.65;;;4.03;;
31966;SDS011;18496;52.042;6.812;2022-11-25T06:59:55;13.70;;;4.07;;
31966;SDS011;18496;52.042;6.812;2022-11-25T07:01:59;15.00;;;4.13;;
31966;SDS011;18496;52.042;6.812;2022-11-25T07:04:03;15.43;;;4.32;;
31966;SDS011;18496;52.042;6.812;2022-11-25T07:06:07;16.58;;;4.65;;
31966;SDS011;18496;52.042;6.812;2022-11-25T07:08:12;14.82;;;4.90;;
31966;SDS011;18496;52.042;6.812;2022-11-25T07:10:15;21.52;;;4.93;;
31966;SDS011;18496;52.042;6.812;2022-11-25T07:12:19;14.75;;;4.28;;
31966;SDS011;18496;52.042;6.812;2022-11-25T07:14:23;18.50;;;4.57;;
31966;SDS011;18496;52.042;6.812;2022-11-25T07:16:26;23.13;;;5.50;;
31966;SDS011;18496;52.042;6.812;2022-11-25T07:18:31;13.70;;;4.63;;
31966;SDS011;18496;52.042;6.812;2022-11-25T07:20:36;13.65;;;4.75;;
31966;SDS011;18496;52.042;6.812;2022-11-25T07:22:40;9.98;;;4.55;;
31966;SDS011;18496;52.042;6.812;2022-11-25T07:24:44;16.70;;;4.35;;
31966;SDS011;18496;52.042;6.812;2022-11-25T07:26:47;21.27;;;4.85;;
31966;SDS011;18496;52.042;6.812;2022-11-25T07:28:51;14.02;;;4.07;;
31966;SDS011;18496;52.042;6.812;2022-11-25T07:31:02;13.30;;;4.93;;
31966;SDS011;18496;52.042;6.812;2022-11-25T07:33:07;19.23;;;4.85;;
31966;SDS011;18496;52.042;6.812;2022-11-25T07:35:11;8.50;;;4.63;;
31966;SDS011;18496;52.042;6.812;2022-11-25T07:37:15;19.83;;;4.45;;
31966;SDS011;18496;52.042;6.812;2022-11-25T07:39:20;14.27;;;4.28;;
31966;SDS011;18496;52.042;6.812;2022-11-25T07:41:25;13.07;;;5.10;;
31966;SDS011;18496;52.042;6.812;2022-11-25T07:43:30;17.85;;;4.00;;
31966;SDS011;18496;52.042;6.812;2022-11-25T07:45:36;15.27;;;3.92;;
31966;SDS011;18496;52.042;6.812;2022-11-25T07:47:44;10.50;;;4.05;;
31966;SDS011;18496;52.042;6.812;2022-11-25T07:49:48;19.33;;;4.68;;
31966;SDS011;18496;52.042;6.812;2022-11-25T07:51:53;20.75;;;4.13;;
31966;SDS011;18496;52.042;6.812;2022-11-25T07:53:59;10.75;;;4.15;;
31966;SDS011;18496;52.042;6.812;2022-11-25T07:56:04;18.10;;;4.38;;
31966;SDS011;18496;52.042;6.812;2022-11-25T07:58:08;13.43;;;3.75;;
31966;SDS011;18496;52.042;6.812;2022-11-25T08:00:12;13.65;;;4.43;;
31966;SDS011;18496;52.042;6.812;2022-11-25T08:02:16;9.90;;;4.03;;
31966;SDS011;18496;52.042;6.812;2022-11-25T08:04:20;17.63;;;4.55;;
31966;SDS011;18496;52.042;6.812;2022-11-25T08:06:26;16.65;;;4.18;;
31966;SDS011;18496;52.042;6.812;2022-11-25T08:08:30;14.25;;;4.38;;
31966;SDS011;18496;52.042;6.812;2022-11-25T08:10:38;10.30;;;3.67;;
31966;SDS011;18496;52.042;6.812;2022-11-25T08:12:42;13.48;;;3.47;;
31966;SDS011;18496;52.042;6.812;2022-11-25T08:14:45;14.43;;;4.03;;
31966;SDS011;18496;52.042;6.812;2022-11-25T08:16:49;10.07;;;3.60;;
31966;SDS011;18496;52.042;6.812;2022-11-25T08:18:53;14.80;;;4.38;;
31966;SDS011;18496;52.042;6.812;2022-11-25T08:20:58;19.58;;;4.15;;
31966;SDS011;18496;52.042;6.812;2022-11-25T08:25:12;21.95;;;4.20;;
31966;SDS011;18496;52.042;6.812;2022-11-25T08:27:15;13.98;;;4.30;;
31966;SDS011;18496;52.042;6.812;2022-11-25T08:29:19;14.75;;;4.30;;
31966;SDS011;18496;52.042;6.812;2022-11-25T08:31:24;14.90;;;4.57;;
31966;SDS011;18496;52.042;6.812;2022-11-25T08:33:29;13.93;;;4.68;;
31966;SDS011;18496;52.042;6.812;2022-11-25T08:35:33;20.85;;;4.85;;
31966;SDS011;18496;52.042;6.812;2022-11-25T08:37:40;14.45;;;4.60;;
31966;SDS011;18496;52.042;6.812;2022-11-25T08:39:43;13.90;;;5.05;;
31966;SDS011;18496;52.042;6.812;2022-11-25T08:41:47;14.55;;;3.83;;
31966;SDS011;18496;52.042;6.812;2022-11-25T08:43:51;16.92;;;4.20;;
31966;SDS011;18496;52.042;6.812;2022-11-25T08:45:55;18.98;;;4.50;;
31966;SDS011;18496;52.042;6.812;2022-11-25T08:47:58;9.63;;;3.75;;
31966;SDS011;18496;52.042;6.812;2022-11-25T08:50:05;14.73;;;4.28;;
31966;SDS011;18496;52.042;6.812;2022-11-25T08:52:10;9.60;;;3.67;;
31966;SDS011;18496;52.042;6.812;2022-11-25T08:54:14;13.38;;;4.40;;
31966;SDS011;18496;52.042;6.812;2022-11-25T08:56:19;18.88;;;4.80;;
31966;SDS011;18496;52.042;6.812;2022-11-25T08:58:24;16.83;;;3.88;;
31966;SDS011;18496;52.042;6.812;2022-11-25T09:00:27;12.48;;;4.03;;
31966;SDS011;18496;52.042;6.812;2022-11-25T09:02:31;17.90;;;4.50;;
31966;SDS011;18496;52.042;6.812;2022-11-25T09:04:35;16.95;;;4.18;;
31966;SDS011;18496;52.042;6.812;2022-11-25T09:06:38;8.45;;;3.78;;
31966;SDS011;18496;52.042;6.812;2022-11-25T09:08:42;17.42;;;4.10;;
31966;SDS011;18496;52.042;6.812;2022-11-25T09:10:46;12.75;;;4.63;;
31966;SDS011;18496;52.042;6.812;2022-11-25T09:12:50;17.08;;;4.72;;
31966;SDS011;18496;52.042;6.812;2022-11-25T09:14:54;13.35;;;4.68;;
31966;SDS011;18496;52.042;6.812;2022-11-25T09:16:57;12.55;;;4.25;;
31966;SDS011;18496;52.042;6.812;2022-11-25T09:19:01;11.02;;;4.22;;
31966;SDS011;18496;52.042;6.812;2022-11-25T09:21:08;11.55;;;4.03;;
31966;SDS011;18496;52.042;6.812;2022-11-25T09:23:14;13.02;;;4.10;;
31966;SDS011;18496;52.042;6.812;2022-11-25T09:25:18;17.58;;;4.03;;
31966;SDS011;18496;52.042;6.812;2022-11-25T09:27:22;14.75;;;3.80;;
31966;SDS011;18496;52.042;6.812;2022-11-25T09:29:26;12.73;;;3.75;;
31966;SDS011;18496;52.042;6.812;2022-11-25T09:31:32;10.38;;;4.07;;
31966;SDS011;18496;52.042;6.812;2022-11-25T09:33:36;12.15;;;3.58;;
31966;SDS011;18496;52.042;6.812;2022-11-25T09:35:39;14.75;;;3.58;;
31966;SDS011;18496;52.042;6.812;2022-11-25T09:37:43;14.65;;;3.42;;
31966;SDS011;18496;52.042;6.812;2022-11-25T09:39:47;12.52;;;3.55;;
31966;SDS011;18496;52.042;6.812;2022-11-25T09:42:02;13.88;;;3.60;;
31966;SDS011;18496;52.042;6.812;2022-11-25T09:47:19;7.85;;;2.97;;
31966;SDS011;18496;52.042;6.812;2022-11-25T09:55:44;12.93;;;3.28;;
31966;SDS011;18496;52.042;6.812;2022-11-25T10:00:14;7.88;;;2.78;;
31966;SDS011;18496;52.042;6.812;2022-11-25T10:02:22;11.45;;;2.97;;
31966;SDS011;18496;52.042;6.812;2022-11-25T10:04:36;13.27;;;3.20;;
31966;SDS011;18496;52.042;6.812;2022-11-25T10:06:50;10.10;;;2.80;;
31966;SDS011;18496;52.042;6.812;2022-11-25T10:08:58;11.20;;;3.17;;
31966;SDS011;18496;52.042;6.812;2022-11-25T10:11:13;14.02;;;2.85;;
31966;SDS011;18496;52.042;6.812;2022-11-25T10:13:22;19.60;;;3.00;;
31966;SDS011;18496;52.042;6.812;2022-11-25T10:15:39;13.00;;;3.03;;
31966;SDS011;18496;52.042;6.812;2022-11-25T10:17:52;11.77;;;3.28;;
31966;SDS011;18496;52.042;6.812;2022-11-25T10:20:22;11.35;;;2.95;;
31966;SDS011;18496;52.042;6.812;2022-11-25T10:22:31;11.85;;;3.10;;
31966;SDS011;18496;52.042;6.812;2022-11-25T10:24:43;8.55;;;3.17;;
31966;SDS011;18496;52.042;6.812;2022-11-25T10:26:56;12.48;;;2.75;;
31966;SDS011;18496;52.042;6.812;2022-11-25T10:31:16;11.30;;;2.60;;
31966;SDS011;18496;52.042;6.812;2022-11-25T10:35:34;9.93;;;2.90;;
31966;SDS011;18496;52.042;6.812;2022-11-25T10:37:43;11.80;;;3.40;;
31966;SDS011;18496;52.042;6.812;2022-11-25T10:39:50;10.57;;;4.53;;
31966;SDS011;18496;52.042;6.812;2022-11-25T10:41:57;12.13;;;3.10;;
31966;SDS011;18496;52.042;6.812;2022-11-25T10:44:08;12.30;;;2.38;;
31966;SDS011;18496;52.042;6.812;2022-11-25T10:46:35;7.05;;;2.15;;
31966;SDS011;18496;52.042;6.812;2022-11-25T10:51:06;10.10;;;2.85;;
31966;SDS011;18496;52.042;6.812;2022-11-25T10:53:21;12.30;;;3.40;;
31966;SDS011;18496;52.042;6.812;2022-11-25T10:55:29;10.10;;;2.40;;
31966;SDS011;18496;52.042;6.812;2022-11-25T10:57:34;6.65;;;3.20;;
31966;SDS011;18496;52.042;6.812;2022-11-25T10:59:38;8.25;;;3.10;;
31966;SDS011;18496;52.042;6.812;2022-11-25T11:01:42;12.05;;;3.08;;
31966;SDS011;18496;52.042;6.812;2022-11-25T11:03:50;8.50;;;2.55;;
31966;SDS011;18496;52.042;6.812;2022-11-25T11:05:56;9.80;;;2.45;;
31966;SDS011;18496;52.042;6.812;2022-11-25T11:10:23;10.40;;;3.13;;
31966;SDS011;18496;52.042;6.812;2022-11-25T11:12:28;11.25;;;3.13;;
31966;SDS011;18496;52.042;6.812;2022-11-25T11:14:32;9.80;;;2.75;;
31966;SDS011;18496;52.042;6.812;2022-11-25T11:16:37;12.45;;;3.05;;
31966;SDS011;18496;52.042;6.812;2022-11-25T11:18:45;17.83;;;3.15;;
31966;SDS011;18496;52.042;6.812;2022-11-25T11:20:50;12.88;;;4.38;;
31966;SDS011;18496;52.042;6.812;2022-11-25T11:23:00;16.02;;;3.47;;
31966;SDS011;18496;52.042;6.812;2022-11-25T11:25:11;13.40;;;3.45;;
31966;SDS011;18496;52.042;6.812;2022-11-25T11:27:23;10.85;;;3.30;;
31966;SDS011;18496;52.042;6.812;2022-11-25T11:29:27;13.25;;;3.92;;
31966;SDS011;18496;52.042;6.812;2022-11-25T11:31:33;13.50;;;3.63;;
31966;SDS011;18496;52.042;6.812;2022-11-25T11:35:53;15.30;;;4.13;;
31966;SDS011;18496;52.042;6.812;2022-11-25T11:38:17;18.70;;;3.22;;
31966;SDS011;18496;52.042;6.812;2022-11-25T11:40:46;12.65;;;3.70;;
31966;SDS011;18496;52.042;6.812;2022-11-25T12:01:22;8.05;;;3.83;;
31966;SDS011;18496;52.042;6.812;2022-11-25T12:03:39;10.13;;;3.45;;
31966;SDS011;18496;52.042;6.812;2022-11-25T12:05:53;12.57;;;3.70;;
31966;SDS011;18496;52.042;6.812;2022-11-25T12:12:43;17.17;;;3.75;;
31966;SDS011;18496;52.042;6.812;2022-11-25T12:17:00;13.35;;;3.33;;
31966;SDS011;18496;52.042;6.812;2022-11-25T12:23:47;16.20;;;3.63;;
31966;SDS011;18496;52.042;6.812;2022-11-25T12:26:01;19.35;;;5.72;;
31966;SDS011;18496;52.042;6.812;2022-11-25T12:30:23;15.35;;;4.82;;
31966;SDS011;18496;52.042;6.812;2022-11-25T12:34:47;14.25;;;3.63;;
31966;SDS011;18496;52.042;6.812;2022-11-25T12:37:03;10.80;;;3.30;;
31966;SDS011;18496;52.042;6.812;2022-11-25T12:39:40;13.90;;;2.83;;
31966;SDS011;18496;52.042;6.812;2022-11-25T12:41:51;13.70;;;3.20;;
31966;SDS011;18496;52.042;6.812;2022-11-25T12:46:42;9.85;;;5.03;;
31966;SDS011;18496;52.042;6.812;2022-11-25T12:48:48;15.93;;;4.57;;
31966;SDS011;18496;52.042;6.812;2022-11-25T12:53:15;16.25;;;3.67;;
31966;SDS011;18496;52.042;6.812;2022-11-25T12:55:35;16.27;;;3.88;;
31966;SDS011;18496;52.042;6.812;2022-11-25T13:10:32;12.60;;;2.92;;
31966;SDS011;18496;52.042;6.812;2022-11-25T13:17:40;11.07;;;3.60;;
31966;SDS011;18496;52.042;6.812;2022-11-25T13:19:45;11.65;;;3.67;;
31966;SDS011;18496;52.042;6.812;2022-11-25T13:24:46;9.35;;;3.15;;
31966;SDS011;18496;52.042;6.812;2022-11-25T13:26:49;11.43;;;3.08;;
31966;SDS011;18496;52.042;6.812;2022-11-25T13:28:53;13.45;;;3.25;;
31966;SDS011;18496;52.042;6.812;2022-11-25T13:35:29;19.52;;;3.83;;
31966;SDS011;18496;52.042;6.812;2022-11-25T13:37:34;12.05;;;3.22;;
31966;SDS011;18496;52.042;6.812;2022-11-25T13:39:39;11.65;;;3.08;;
31966;SDS011;18496;52.042;6.812;2022-11-25T13:41:47;13.90;;;4.22;;
31966;SDS011;18496;52.042;6.812;2022-11-25T13:46:25;17.23;;;4.20;;
31966;SDS011;18496;52.042;6.812;2022-11-25T13:48:31;13.35;;;3.35;;
31966;SDS011;18496;52.042;6.812;2022-11-25T13:50:39;17.48;;;3.42;;
31966;SDS011;18496;52.042;6.812;2022-11-25T13:52:47;16.35;;;3.85;;
31966;SDS011;18496;52.042;6.812;2022-11-25T13:54:55;8.30;;;2.83;;
31966;SDS011;18496;52.042;6.812;2022-11-25T14:01:22;18.58;;;3.70;;
31966;SDS011;18496;52.042;6.812;2022-11-25T14:08:38;11.52;;;3.95;;
31966;SDS011;18496;52.042;6.812;2022-11-25T14:18:39;9.95;;;3.78;;
31966;SDS011;18496;52.042;6.812;2022-11-25T14:21:09;20.02;;;3.83;;
31966;SDS011;18496;52.042;6.812;2022-11-25T14:25:55;12.55;;;3.67;;
31966;SDS011;18496;52.042;6.812;2022-11-25T14:28:06;21.75;;;4.72;;
31966;SDS011;18496;52.042;6.812;2022-11-25T14:30:17;14.25;;;3.30;;